Winthrop, IA (50682)

5:43 AM CDT on August 29, 2015 (GMT -0500)
Terrace Drive SE | | Change Station
CLOSE
Current Station
Personal Weather Station
Location: Independence, IA
Elevation: 940 ft
Nearby Weather Stations

Elev 940 ft 42.47 °N, 91.88 °W | Updated 14 seconds ago

Fog
Fog
63.3 °F
Feels Like 63.3 °F
N
0.0
Wind Variable Wind from NW
Gusts 0.0 mph

Today
High -- | Low -- °F
--% Chance of Precip.
Yesterday
High -- | Low -- °F
Precip. -- in
6:28 AM 7:46 PM
Full, 100% visible
Pressure 29.96 in
Visibility 3.0 miles
Clouds Overcast 200 ft
Dew Point 63 °F
Humidity 98%
Rainfall 0.02 in
Snow Depth Not available.
UV 0 out of 12
Pollen 1.10 out of 12
Air Quality Not available.
Flu Activity Not available.
METAR KOLZ 291035Z AUTO 04003KT 3SM BR OVC002 18/18 A2996 RMK AO2
Pressure 29.96 in
Visibility 3.0 miles
Clouds Overcast 200 ft
Dew Point 63 °F
Humidity 98%
Rainfall 0.02 in
Snow Depth Not available.
UV 0 out of 12
Pollen 1.10 out of 12
Air Quality Not available.
Flu Activity Not available.
METAR KOLZ 291035Z AUTO 04003KT 3SM BR OVC002 18/18 A2996 RMK AO2

10-Day Weather Forecast

×

Almanac

Astronomy

Aug. 29, 2015 Rise Set
Actual Time
Civil Twilight
Nautical Twilight
Astronomical Twilight
Moon
Length of Visible Light
Length of Day
Tomorrow will be .
, % of the Moon is Illuminated

Today's Extremes

State Highs State Lows

Community

WunderPhotos

Upload Photos

1,850,633 photos uploaded!

WunderBlogs® & News

Nearby

Air Quality

  Air Quality AQ Index Pollutant
Not available.

Snow Depth

Station Depth Elevation

Earthquake Activity

City Distance Mag. Time & Date
Minimum magnitude displayed is 2.5.

Coastal Water Temperatures

Place Temperature

Stations

Nearby Weather Stations

Station Location Temp. Windchill Dew Point Humidity Wind Precip. Elev Updated Type